createdAt,value
2023-04-29T00:01:25.027Z,12.34
2023-04-29T00:03:53.628Z,12.47
2023-04-29T00:06:22.580Z,12.61
2023-04-29T00:08:52.126Z,12.53
2023-04-29T00:11:20.606Z,12.63
2023-04-29T00:13:50.277Z,12.47
2023-04-29T00:16:18.683Z,12.04
2023-04-29T00:18:47.263Z,12.17
2023-04-29T00:21:15.880Z,12.17
2023-04-29T00:23:44.307Z,12.25
2023-04-29T00:26:12.584Z,11.72
2023-04-29T00:28:45.269Z,11.99
2023-04-29T00:31:15.256Z,11.92
2023-04-29T00:33:43.721Z,12.05
2023-04-29T00:36:11.990Z,12.09
2023-04-29T00:38:40.450Z,12.24
2023-04-29T00:41:09.084Z,12.09
2023-04-29T00:43:37.366Z,12.10
2023-04-29T00:46:05.767Z,12.12
2023-04-29T00:48:36.318Z,12.19
2023-04-29T00:51:06.967Z,12.36
2023-04-29T00:53:35.676Z,12.37
2023-04-29T00:56:04.684Z,12.37
2023-04-29T00:58:35.454Z,12.28
2023-04-29T01:01:04.452Z,12.22
2023-04-29T01:03:33.519Z,12.01
2023-04-29T01:06:15.911Z,12.10
2023-04-29T01:08:56.643Z,12.01
2023-04-29T01:11:26.055Z,12.09
2023-04-29T01:14:01.973Z,12.02
2023-04-29T01:16:38.635Z,12.02
2023-04-29T01:19:21.508Z,11.85
2023-04-29T01:21:51.322Z,12.08
2023-04-29T01:24:21.073Z,12.21
2023-04-29T01:26:58.456Z,11.93
2023-04-29T01:29:53.065Z,12.06
2023-04-29T01:32:35.255Z,12.14
2023-04-29T01:35:16.453Z,12.26
2023-04-29T01:37:53.844Z,12.19
2023-04-29T01:40:33.366Z,12.41
2023-04-29T01:43:13.970Z,12.31
2023-04-29T01:45:46.430Z,12.29
2023-04-29T01:48:17.512Z,12.19
2023-04-29T01:50:46.403Z,12.24
2023-04-29T01:53:17.059Z,12.42
2023-04-29T01:55:48.014Z,12.25
2023-04-29T01:58:19.594Z,12.42
2023-04-29T02:01:04.004Z,12.45
2023-04-29T02:03:34.603Z,12.36
2023-04-29T02:06:04.397Z,12.44
2023-04-29T02:08:32.907Z,12.57
2023-04-29T02:11:03.853Z,12.61
2023-04-29T02:13:42.922Z,12.67
2023-04-29T02:16:15.101Z,12.68
2023-04-29T02:18:48.320Z,12.73
2023-04-29T02:21:16.717Z,12.22
2023-04-29T02:23:45.039Z,12.41
2023-04-29T02:26:15.537Z,12.50
2023-04-29T02:28:44.291Z,12.37
2023-04-29T02:31:12.568Z,12.48
2023-04-29T02:33:41.427Z,12.48
2023-04-29T02:36:10.998Z,12.44
2023-04-29T02:38:39.422Z,12.48
2023-04-29T02:41:08.157Z,12.47
2023-04-29T02:43:38.078Z,12.54
2023-04-29T02:46:06.691Z,12.62
2023-04-29T02:48:35.352Z,12.68
2023-04-29T02:51:03.625Z,12.72
2023-04-29T02:53:31.984Z,12.63
2023-04-29T02:56:00.506Z,12.78
2023-04-29T02:58:28.873Z,12.63
2023-04-29T03:00:58.622Z,12.68
2023-04-29T03:03:27.167Z,12.77
2023-04-29T03:05:55.719Z,12.82
2023-04-29T03:08:24.266Z,12.90
2023-04-29T03:10:52.656Z,12.82
2023-04-29T03:13:21.149Z,12.83
2023-04-29T03:15:49.800Z,12.85
2023-04-29T03:18:19.772Z,12.94
2023-04-29T03:20:49.531Z,12.76
2023-04-29T03:23:17.894Z,12.70
2023-04-29T03:25:46.726Z,12.67
2023-04-29T03:28:15.168Z,12.49
2023-04-29T03:30:43.478Z,12.76
2023-04-29T03:33:11.842Z,12.79
2023-04-29T03:35:41.961Z,12.87
2023-04-29T03:38:19.557Z,12.87
2023-04-29T03:40:49.925Z,12.92
2023-04-29T03:43:19.579Z,12.84
2023-04-29T03:45:48.430Z,12.94
2023-04-29T03:48:20.147Z,12.93
2023-04-29T03:50:50.038Z,13.05
2023-04-29T03:53:18.970Z,13.11
2023-04-29T03:55:48.542Z,13.05
2023-04-29T03:58:17.838Z,13.09
2023-04-29T04:00:46.645Z,13.15
2023-04-29T04:03:20.851Z,13.12
2023-04-29T04:05:51.023Z,12.99
2023-04-29T04:08:19.463Z,13.09
2023-04-29T04:11:02.911Z,13.14
2023-04-29T04:13:36.463Z,13.19
2023-04-29T04:16:06.117Z,13.15
2023-04-29T04:18:34.555Z,13.26
2023-04-29T04:21:08.921Z,13.22
2023-04-29T04:23:40.632Z,13.18
2023-04-29T04:26:10.830Z,12.79
2023-04-29T04:28:54.105Z,13.22
2023-04-29T04:31:45.495Z,13.16
2023-04-29T04:34:15.697Z,13.21
2023-04-29T04:36:47.545Z,13.18
2023-04-29T04:39:16.021Z,13.20
2023-04-29T04:41:44.514Z,13.28
2023-04-29T04:44:13.344Z,13.34
2023-04-29T04:46:50.575Z,13.38
2023-04-29T04:49:31.608Z,13.19
2023-04-29T04:52:01.959Z,13.32
2023-04-29T04:54:30.785Z,13.30
2023-04-29T04:57:07.869Z,13.28
2023-04-29T04:59:36.155Z,13.06
2023-04-29T05:02:04.646Z,13.19
2023-04-29T05:04:33.115Z,13.12
2023-04-29T05:07:02.962Z,13.21
2023-04-29T05:09:38.422Z,13.21
2023-04-29T05:12:07.296Z,13.28
2023-04-29T05:14:35.867Z,13.31
2023-04-29T05:17:04.254Z,13.23
2023-04-29T05:19:33.154Z,13.27
2023-04-29T05:22:03.486Z,13.32
2023-04-29T05:24:32.840Z,13.30
2023-04-29T05:27:01.603Z,13.32
2023-04-29T05:29:29.974Z,13.34
2023-04-29T05:32:01.353Z,13.35
2023-04-29T05:34:30.336Z,13.35
2023-04-29T05:36:58.764Z,13.43
2023-04-29T05:39:28.812Z,13.26
2023-04-29T05:42:07.019Z,13.37
2023-04-29T05:44:42.682Z,13.33
2023-04-29T05:47:11.078Z,13.33
2023-04-29T05:49:40.853Z,13.45
2023-04-29T05:52:09.177Z,13.40
2023-04-29T05:54:44.760Z,13.39
2023-04-29T05:57:13.783Z,13.40
2023-04-29T05:59:42.494Z,13.39
2023-04-29T06:02:11.818Z,13.23
2023-04-29T06:04:42.706Z,13.40
2023-04-29T06:07:22.542Z,13.32
2023-04-29T06:09:57.822Z,13.41
2023-04-29T06:12:27.463Z,13.44
2023-04-29T06:14:56.214Z,12.86
2023-04-29T06:17:24.661Z,13.47
2023-04-29T06:19:55.860Z,13.49
2023-04-29T06:22:25.622Z,13.47
2023-04-29T06:24:57.296Z,13.43
2023-04-29T06:27:39.529Z,13.52
2023-04-29T06:30:09.984Z,13.57
2023-04-29T06:32:39.906Z,13.51
2023-04-29T06:35:09.658Z,13.17
2023-04-29T06:38:10.374Z,13.42
2023-04-29T06:41:15.827Z,13.56
2023-04-29T06:44:00.900Z,13.68
2023-04-29T06:46:49.503Z,13.78
2023-04-29T06:49:21.608Z,13.78
2023-04-29T06:51:50.729Z,13.95
2023-04-29T06:54:21.521Z,13.97
2023-04-29T06:56:53.313Z,14.16
2023-04-29T06:59:21.632Z,14.29
2023-04-29T07:01:50.089Z,14.52
2023-04-29T07:04:21.581Z,14.67
2023-04-29T07:06:51.118Z,14.97
2023-04-29T07:09:20.628Z,15.18
2023-04-29T07:11:49.422Z,15.25
2023-04-29T07:14:23.902Z,15.35
2023-04-29T07:16:55.592Z,15.43
2023-04-29T07:19:25.085Z,15.50
2023-04-29T07:21:53.558Z,15.59
2023-04-29T07:24:23.363Z,15.83
2023-04-29T07:26:51.714Z,15.46
2023-04-29T07:29:23.722Z,15.68
2023-04-29T07:31:53.767Z,15.06
2023-04-29T07:34:28.327Z,15.45
2023-04-29T07:36:58.349Z,15.33
2023-04-29T07:39:26.829Z,15.04
2023-04-29T07:41:57.578Z,14.80
2023-04-29T07:44:27.258Z,15.28
2023-04-29T07:46:55.622Z,15.56
2023-04-29T07:49:26.094Z,15.67
2023-04-29T07:51:54.457Z,15.80
2023-04-29T07:54:23.700Z,16.01
2023-04-29T07:56:52.617Z,16.21
2023-04-29T07:59:22.050Z,16.32
2023-04-29T08:01:52.378Z,16.36
2023-04-29T08:04:21.624Z,16.47
2023-04-29T08:06:57.193Z,16.46
2023-04-29T08:09:25.777Z,16.49
2023-04-29T08:11:54.084Z,16.52
2023-04-29T08:14:22.505Z,16.56
2023-04-29T08:16:52.241Z,16.61
2023-04-29T08:19:21.479Z,16.23
2023-04-29T08:21:52.060Z,16.24
2023-04-29T08:24:22.430Z,16.30
2023-04-29T08:26:51.167Z,16.41
2023-04-29T08:29:19.590Z,16.51
2023-04-29T08:31:48.027Z,16.30
2023-04-29T08:34:17.908Z,16.34
2023-04-29T08:36:47.432Z,16.21
2023-04-29T08:39:15.900Z,16.42
2023-04-29T08:41:49.240Z,16.63
2023-04-29T08:44:18.086Z,16.95
2023-04-29T08:46:47.725Z,17.14
2023-04-29T08:49:17.523Z,17.23
2023-04-29T08:51:46.406Z,17.41
2023-04-29T08:54:14.744Z,17.58
2023-04-29T08:56:47.992Z,17.68
2023-04-29T08:59:20.508Z,17.82
2023-04-29T09:01:53.357Z,17.92
2023-04-29T09:04:36.005Z,17.92
2023-04-29T09:07:05.482Z,18.23
2023-04-29T09:09:34.670Z,18.26
2023-04-29T09:12:03.041Z,18.36
2023-04-29T09:14:34.272Z,18.13
2023-04-29T09:17:02.787Z,18.17
2023-04-29T09:19:34.776Z,18.32
2023-04-29T09:22:04.589Z,18.34
2023-04-29T09:24:33.523Z,18.32
2023-04-29T09:27:03.186Z,18.35
2023-04-29T09:29:32.989Z,18.22
2023-04-29T09:32:01.671Z,18.25
2023-04-29T09:34:38.523Z,18.05
2023-04-29T09:37:24.935Z,18.02
2023-04-29T09:39:53.403Z,18.18
2023-04-29T09:42:21.996Z,18.29
2023-04-29T09:44:50.480Z,18.14
2023-04-29T09:47:18.904Z,17.92
2023-04-29T09:49:50.060Z,18.26
2023-04-29T09:52:18.512Z,18.33
2023-04-29T09:54:46.830Z,18.51
2023-04-29T09:57:16.060Z,18.79
2023-04-29T09:59:44.478Z,18.92
2023-04-29T10:02:17.717Z,18.98
2023-04-29T10:04:50.251Z,18.93
2023-04-29T10:07:20.303Z,19.13
2023-04-29T10:09:49.605Z,19.11
2023-04-29T10:12:19.247Z,19.30
2023-04-29T10:14:56.525Z,19.18
2023-04-29T10:17:35.859Z,19.34
2023-04-29T10:20:08.576Z,18.89
2023-04-29T10:22:47.821Z,19.55
2023-04-29T10:25:18.463Z,19.51
2023-04-29T10:27:49.000Z,19.36
2023-04-29T10:30:19.362Z,19.46
2023-04-29T10:32:51.627Z,18.87
2023-04-29T10:35:25.393Z,19.29
2023-04-29T10:37:54.828Z,19.24
2023-04-29T10:40:30.644Z,19.29
2023-04-29T10:42:59.615Z,19.52
2023-04-29T10:45:31.823Z,19.79
2023-04-29T10:48:18.839Z,19.62
2023-04-29T10:51:06.779Z,19.83
2023-04-29T10:53:35.644Z,19.82
2023-04-29T10:56:11.167Z,19.99
2023-04-29T10:58:43.975Z,19.94
2023-04-29T11:01:14.356Z,19.88
2023-04-29T11:03:59.303Z,19.69
2023-04-29T11:06:43.058Z,19.47
2023-04-29T11:09:15.302Z,19.47
2023-04-29T11:11:49.938Z,19.48
2023-04-29T11:14:25.104Z,19.78
2023-04-29T11:16:55.705Z,19.89
2023-04-29T11:19:26.667Z,20.10
2023-04-29T11:22:13.783Z,20.13
2023-04-29T11:24:57.978Z,19.96
2023-04-29T11:27:31.061Z,19.99
2023-04-29T11:30:00.744Z,19.91
2023-04-29T11:32:30.590Z,19.87
2023-04-29T11:35:10.451Z,19.79
2023-04-29T11:37:41.979Z,19.27
2023-04-29T11:40:13.092Z,18.64
2023-04-29T11:42:45.370Z,18.64
2023-04-29T11:45:14.704Z,18.43
2023-04-29T11:47:46.447Z,18.08
2023-04-29T11:50:17.746Z,17.85
2023-04-29T11:52:48.831Z,17.92
2023-04-29T11:55:17.423Z,17.63
2023-04-29T11:57:45.784Z,17.88
2023-04-29T12:00:16.784Z,17.69
2023-04-29T12:02:47.666Z,17.05
2023-04-29T12:05:17.514Z,17.69
2023-04-29T12:07:47.537Z,17.32
2023-04-29T12:10:15.832Z,16.75
2023-04-29T12:12:45.921Z,16.69
2023-04-29T12:15:14.813Z,16.60
2023-04-29T12:17:46.334Z,16.78
2023-04-29T12:20:15.337Z,17.09
2023-04-29T12:22:44.912Z,17.59
2023-04-29T12:25:14.668Z,17.58
2023-04-29T12:27:43.470Z,17.35
2023-04-29T12:30:13.240Z,17.63
2023-04-29T12:32:42.232Z,17.75
2023-04-29T12:35:17.764Z,17.95
2023-04-29T12:37:50.827Z,18.22
2023-04-29T12:40:21.442Z,18.49
2023-04-29T12:42:49.929Z,18.36
2023-04-29T12:45:30.637Z,18.33
2023-04-29T12:47:59.428Z,17.98
2023-04-29T12:50:34.361Z,18.28
2023-04-29T12:53:04.795Z,18.59
2023-04-29T12:55:35.797Z,18.52
2023-04-29T12:58:04.629Z,18.29
2023-04-29T13:00:35.017Z,18.56
2023-04-29T13:03:04.401Z,18.67
2023-04-29T13:05:32.873Z,18.79
2023-04-29T13:08:01.574Z,18.71
2023-04-29T13:10:30.020Z,18.44
2023-04-29T13:13:00.000Z,18.44
2023-04-29T13:15:28.480Z,18.44
2023-04-29T13:17:58.692Z,18.03
2023-04-29T13:20:27.512Z,18.32
2023-04-29T13:22:56.186Z,18.50
2023-04-29T13:25:24.496Z,18.72
2023-04-29T13:27:52.931Z,18.85
2023-04-29T13:30:22.552Z,18.70
2023-04-29T13:32:55.923Z,18.55
2023-04-29T13:35:28.167Z,18.14
2023-04-29T13:37:57.070Z,17.53
2023-04-29T13:40:28.105Z,18.08
2023-04-29T13:43:05.616Z,17.98
2023-04-29T13:45:39.771Z,18.21
2023-04-29T13:48:21.141Z,18.25
2023-04-29T13:54:05.684Z,18.71
2023-04-29T13:59:36.346Z,18.84
2023-04-29T14:04:14.216Z,18.28
2023-04-29T14:06:44.694Z,18.56
2023-04-29T14:09:13.029Z,18.11
2023-04-29T14:11:41.368Z,18.13
2023-04-29T14:14:09.699Z,18.15
2023-04-29T14:16:37.964Z,18.06
2023-04-29T14:19:08.699Z,17.87
2023-04-29T14:21:37.062Z,17.70
2023-04-29T14:24:05.435Z,17.79
2023-04-29T14:26:33.923Z,17.29
2023-04-29T14:29:02.745Z,17.17
2023-04-29T14:31:35.324Z,17.43
2023-04-29T14:34:03.691Z,17.75
2023-04-29T14:36:33.847Z,17.90
2023-04-29T14:39:03.894Z,17.72
2023-04-29T14:41:32.233Z,17.92
2023-04-29T14:44:01.044Z,17.81
2023-04-29T14:46:29.527Z,17.43
2023-04-29T14:48:57.869Z,17.73
2023-04-29T14:51:27.448Z,17.85
2023-04-29T14:53:57.081Z,17.62
2023-04-29T14:56:26.116Z,17.69
2023-04-29T14:58:54.568Z,17.30
2023-04-29T15:01:22.893Z,16.84
2023-04-29T15:03:51.305Z,17.32
2023-04-29T15:06:19.905Z,17.48
2023-04-29T15:08:48.375Z,17.20
2023-04-29T15:11:18.096Z,17.28
2023-04-29T15:13:46.491Z,17.50
2023-04-29T15:16:14.815Z,17.65
2023-04-29T15:18:45.619Z,17.87
2023-04-29T15:21:14.178Z,17.62
2023-04-29T15:23:42.495Z,17.67
2023-04-29T15:26:10.817Z,17.56
2023-04-29T15:28:40.594Z,17.72
2023-04-29T15:31:09.748Z,17.67
2023-04-29T15:33:38.166Z,17.62
2023-04-29T15:36:08.523Z,17.38
2023-04-29T15:38:36.935Z,17.40
2023-04-29T15:41:05.632Z,17.64
2023-04-29T15:43:34.368Z,17.70
2023-04-29T15:46:04.134Z,17.58
2023-04-29T15:48:32.487Z,17.14
2023-04-29T15:51:00.776Z,17.02
2023-04-29T15:53:29.071Z,17.26
2023-04-29T15:55:57.428Z,17.35
2023-04-29T15:58:25.904Z,17.43
2023-04-29T16:00:54.286Z,17.53
2023-04-29T16:03:24.020Z,17.44
2023-04-29T16:05:52.677Z,17.65
2023-04-29T16:08:21.020Z,17.71
2023-04-29T16:10:49.611Z,17.90
2023-04-29T16:13:17.937Z,17.98
2023-04-29T16:15:46.293Z,17.77
2023-04-29T16:18:15.015Z,17.61
2023-04-29T16:20:44.980Z,17.45
2023-04-29T16:23:14.346Z,17.56
2023-04-29T16:25:43.053Z,17.70
2023-04-29T16:28:11.330Z,17.82
2023-04-29T16:30:39.621Z,17.93
2023-04-29T16:33:07.860Z,18.06
2023-04-29T16:35:37.536Z,18.03
2023-04-29T16:38:07.253Z,17.80
2023-04-29T16:40:35.709Z,17.68
2023-04-29T16:43:04.004Z,17.72
2023-04-29T16:45:32.605Z,17.65
2023-04-29T16:48:02.026Z,17.65
2023-04-29T16:50:30.396Z,17.64
2023-04-29T16:52:58.733Z,17.56
2023-04-29T16:55:28.424Z,17.48
2023-04-29T16:57:56.815Z,17.53
2023-04-29T17:00:25.340Z,17.53
2023-04-29T17:02:54.194Z,17.55
2023-04-29T17:05:22.640Z,17.55
2023-04-29T17:07:50.932Z,17.49
2023-04-29T17:10:19.482Z,17.46
2023-04-29T17:12:49.173Z,17.40
2023-04-29T17:15:17.746Z,17.33
2023-04-29T17:17:46.723Z,17.17
2023-04-29T17:20:15.827Z,17.15
2023-04-29T17:22:44.861Z,17.09
2023-04-29T17:25:13.778Z,17.04
2023-04-29T17:27:42.224Z,16.99
2023-04-29T17:30:14.152Z,16.94
2023-04-29T17:32:44.365Z,16.85
2023-04-29T17:35:12.852Z,16.66
2023-04-29T17:37:41.236Z,16.69
2023-04-29T17:40:10.933Z,16.59
2023-04-29T17:42:39.269Z,16.54
2023-04-29T17:45:09.434Z,16.50
2023-04-29T17:47:39.212Z,16.46
2023-04-29T17:50:09.034Z,16.45
2023-04-29T17:52:37.445Z,16.50
2023-04-29T17:55:07.055Z,16.47
2023-04-29T17:57:36.470Z,16.39
2023-04-29T18:00:06.938Z,16.37
2023-04-29T18:02:35.521Z,16.47
2023-04-29T18:05:06.153Z,16.40
2023-04-29T18:07:34.322Z,16.40
2023-04-29T18:10:02.726Z,16.36
2023-04-29T18:12:31.090Z,16.38
2023-04-29T18:14:59.368Z,16.35
2023-04-29T18:17:27.839Z,16.45
2023-04-29T18:19:56.320Z,16.32
2023-04-29T18:22:26.444Z,16.37
2023-04-29T18:24:54.811Z,16.29
2023-04-29T18:27:23.094Z,16.22
2023-04-29T18:29:51.791Z,16.25
2023-04-29T18:32:20.216Z,16.22
2023-04-29T18:34:48.729Z,16.25
2023-04-29T18:37:17.015Z,16.28
2023-04-29T18:39:46.796Z,16.24
2023-04-29T18:42:15.238Z,16.27
2023-04-29T18:44:43.688Z,16.21
2023-04-29T18:47:11.947Z,16.23
2023-04-29T18:49:40.974Z,16.16
2023-04-29T18:52:09.513Z,16.09
2023-04-29T18:54:37.842Z,16.15
2023-04-29T18:57:07.521Z,16.09
2023-04-29T18:59:38.076Z,16.19
2023-04-29T19:02:06.866Z,16.08
2023-04-29T19:04:35.690Z,16.15
2023-04-29T19:07:06.159Z,16.08
2023-04-29T19:09:34.596Z,15.99
2023-04-29T19:12:04.557Z,15.94
2023-04-29T19:14:34.427Z,15.78
2023-04-29T19:17:02.759Z,15.78
2023-04-29T19:19:31.257Z,15.80
2023-04-29T19:21:59.589Z,15.68
2023-04-29T19:24:27.885Z,15.71
2023-04-29T19:26:56.255Z,15.77
2023-04-29T19:29:24.611Z,15.64
2023-04-29T19:31:54.355Z,15.58
2023-04-29T19:34:22.689Z,15.53
2023-04-29T19:36:51.063Z,15.55
2023-04-29T19:39:19.619Z,15.52
2023-04-29T19:41:47.993Z,15.46
2023-04-29T19:44:16.408Z,15.47
2023-04-29T19:46:44.714Z,15.37
2023-04-29T19:49:14.861Z,15.36
2023-04-29T19:51:43.308Z,15.35
2023-04-29T19:54:11.841Z,15.30
2023-04-29T19:56:40.219Z,15.30
2023-04-29T19:59:08.672Z,15.30
2023-04-29T20:01:37.000Z,15.30
2023-04-29T20:04:05.763Z,15.24
2023-04-29T20:06:37.448Z,15.23
2023-04-29T20:09:06.103Z,15.05
2023-04-29T20:11:34.399Z,15.14
2023-04-29T20:14:02.804Z,15.14
2023-04-29T20:16:32.196Z,15.09
2023-04-29T20:19:00.509Z,15.13
2023-04-29T20:21:28.862Z,15.04
2023-04-29T20:23:58.493Z,15.03
2023-04-29T20:26:27.578Z,14.95
2023-04-29T20:28:55.923Z,14.95
2023-04-29T20:31:24.328Z,14.82
2023-04-29T20:33:53.678Z,14.92
2023-04-29T20:36:21.983Z,14.92
2023-04-29T20:38:50.342Z,14.90
2023-04-29T20:41:20.693Z,14.88
2023-04-29T20:43:49.078Z,14.81
2023-04-29T20:46:17.930Z,14.81
2023-04-29T20:48:46.261Z,14.77
2023-04-29T20:51:14.638Z,14.75
2023-04-29T20:53:43.052Z,14.68
2023-04-29T20:56:11.476Z,14.74
2023-04-29T20:58:41.221Z,14.67
2023-04-29T21:01:09.746Z,14.67
2023-04-29T21:03:38.057Z,14.66
2023-04-29T21:06:07.582Z,14.75
2023-04-29T21:08:35.901Z,14.67
2023-04-29T21:11:05.182Z,14.69
2023-04-29T21:13:33.546Z,14.69
2023-04-29T21:16:03.283Z,14.61
2023-04-29T21:18:31.713Z,14.65
2023-04-29T21:21:00.019Z,14.64
2023-04-29T21:23:28.324Z,14.56
2023-04-29T21:25:56.629Z,14.60
2023-04-29T21:28:25.060Z,14.57
2023-04-29T21:30:53.360Z,14.50
2023-04-29T21:33:23.097Z,14.59
2023-04-29T21:35:52.390Z,14.58
2023-04-29T21:38:20.675Z,14.37
2023-04-29T21:40:49.593Z,14.28
2023-04-29T21:43:19.061Z,13.86
2023-04-29T21:45:47.458Z,13.89
2023-04-29T21:48:18.065Z,13.87
2023-04-29T21:50:47.922Z,14.01
2023-04-29T21:53:16.713Z,14.08
2023-04-29T21:55:45.321Z,14.10
2023-04-29T21:58:13.607Z,14.10
2023-04-29T22:00:48.019Z,14.09
2023-04-29T22:03:16.537Z,13.97
2023-04-29T22:05:45.012Z,14.16
2023-04-29T22:08:14.643Z,14.17
2023-04-29T22:10:43.622Z,14.11
2023-04-29T22:13:12.795Z,13.99
2023-04-29T22:15:41.387Z,14.10
2023-04-29T22:18:09.780Z,13.95
2023-04-29T22:20:38.324Z,13.26
2023-04-29T22:23:06.646Z,13.79
2023-04-29T22:25:36.390Z,13.71
2023-04-29T22:28:05.112Z,13.67
2023-04-29T22:30:33.338Z,13.74
2023-04-29T22:33:01.790Z,13.74
2023-04-29T22:35:30.195Z,13.67
2023-04-29T22:37:58.590Z,13.66
2023-04-29T22:40:26.847Z,13.55
2023-04-29T22:42:56.506Z,13.66
2023-04-29T22:45:24.880Z,13.57
2023-04-29T22:47:53.311Z,13.72
2023-04-29T22:50:21.589Z,13.57
2023-04-29T22:52:49.887Z,13.52
2023-04-29T22:55:18.407Z,13.47
2023-04-29T22:57:46.697Z,13.30
2023-04-29T23:00:17.334Z,13.10
2023-04-29T23:02:45.794Z,12.99
2023-04-29T23:05:14.125Z,13.14
2023-04-29T23:07:42.419Z,13.12
2023-04-29T23:10:11.648Z,13.17
2023-04-29T23:12:40.033Z,13.18
2023-04-29T23:15:10.024Z,13.20
2023-04-29T23:17:39.956Z,13.21
2023-04-29T23:20:09.685Z,13.10
2023-04-29T23:22:37.949Z,13.11
2023-04-29T23:25:07.098Z,13.30
2023-04-29T23:27:35.387Z,13.20
2023-04-29T23:30:03.769Z,12.86
2023-04-29T23:32:32.152Z,13.10
2023-04-29T23:35:02.018Z,13.15
2023-04-29T23:37:30.467Z,13.20
2023-04-29T23:39:59.129Z,13.24
2023-04-29T23:42:27.764Z,13.10
2023-04-29T23:44:56.299Z,12.85
2023-04-29T23:47:24.775Z,12.95
2023-04-29T23:49:53.405Z,12.95
2023-04-29T23:52:23.240Z,12.90
2023-04-29T23:54:51.509Z,12.96
2023-04-29T23:57:20.209Z,13.00
2023-04-29T23:59:48.578Z,13.00
